createdAt,value
2022-12-23T00:00:54.416Z,9.90
2022-12-23T00:03:23.940Z,9.90
2022-12-23T00:05:53.291Z,9.90
2022-12-23T00:08:26.009Z,9.90
2022-12-23T00:10:57.625Z,9.90
2022-12-23T00:13:44.103Z,9.90
2022-12-23T00:16:15.150Z,9.90
2022-12-23T00:18:44.395Z,9.90
2022-12-23T00:21:15.316Z,9.90
2022-12-23T00:23:47.727Z,9.90
2022-12-23T00:26:18.781Z,9.90
2022-12-23T00:28:47.408Z,9.90
2022-12-23T00:31:18.998Z,9.90
2022-12-23T00:33:50.041Z,9.90
2022-12-23T00:36:28.610Z,9.90
2022-12-23T00:39:17.790Z,9.90
2022-12-23T00:42:04.573Z,9.90
2022-12-23T00:44:33.569Z,9.90
2022-12-23T00:47:01.997Z,9.90
2022-12-23T00:49:44.443Z,9.90
2022-12-23T00:52:16.648Z,9.90
2022-12-23T00:54:46.827Z,9.90
2022-12-23T00:57:15.242Z,9.90
2022-12-23T00:59:43.663Z,9.90
2022-12-23T01:02:30.798Z,9.90
2022-12-23T01:05:16.915Z,9.90
2022-12-23T01:07:45.366Z,10.00
2022-12-23T01:10:15.366Z,10.00
2022-12-23T01:12:43.811Z,9.90
2022-12-23T01:15:12.532Z,10.00
2022-12-23T01:17:41.029Z,10.00
2022-12-23T01:20:11.695Z,10.00
2022-12-23T01:22:40.255Z,10.00
2022-12-23T01:25:09.324Z,10.00
2022-12-23T01:27:39.241Z,10.00
2022-12-23T01:30:12.154Z,10.00
2022-12-23T01:32:40.818Z,10.00
2022-12-23T01:35:09.781Z,10.00
2022-12-23T01:37:38.297Z,10.00
2022-12-23T01:40:08.518Z,10.00
2022-12-23T01:42:47.535Z,10.00
2022-12-23T01:45:19.619Z,10.00
2022-12-23T01:47:54.224Z,10.00
2022-12-23T01:50:32.578Z,10.00
2022-12-23T01:53:08.007Z,10.00
2022-12-23T01:55:42.338Z,10.00
2022-12-23T01:58:15.097Z,10.00
2022-12-23T02:01:01.405Z,10.00
2022-12-23T02:03:45.295Z,10.00
2022-12-23T02:06:37.489Z,10.00
2022-12-23T02:09:18.729Z,10.00
2022-12-23T02:12:21.511Z,10.00
2022-12-23T02:15:30.014Z,10.00
2022-12-23T02:18:07.673Z,10.00
2022-12-23T02:21:11.067Z,10.00
2022-12-23T02:24:14.904Z,10.00
2022-12-23T02:27:11.568Z,10.00
2022-12-23T02:30:17.393Z,10.00
2022-12-23T02:32:59.980Z,10.00
2022-12-23T02:35:34.183Z,10.00
2022-12-23T02:38:10.631Z,10.00
2022-12-23T02:40:50.806Z,10.10
2022-12-23T02:43:26.947Z,10.00
2022-12-23T02:46:01.124Z,10.00
2022-12-23T02:48:37.546Z,10.00
2022-12-23T02:51:08.765Z,10.00
2022-12-23T02:53:43.941Z,10.00
2022-12-23T02:56:15.363Z,10.10
2022-12-23T02:58:50.730Z,10.00
2022-12-23T03:01:20.789Z,10.00
2022-12-23T03:03:52.589Z,10.10
2022-12-23T03:06:26.519Z,10.10
2022-12-23T03:08:58.107Z,10.10
2022-12-23T03:11:40.322Z,10.10
2022-12-23T03:14:31.444Z,10.10
2022-12-23T03:17:09.230Z,10.10
2022-12-23T03:19:46.479Z,10.00
2022-12-23T03:22:21.271Z,10.00
2022-12-23T03:24:55.806Z,10.00
2022-12-23T03:27:32.218Z,10.00
2022-12-23T03:30:05.338Z,10.10
2022-12-23T03:32:38.084Z,10.10
2022-12-23T03:35:11.532Z,10.10
2022-12-23T03:37:46.014Z,10.10
2022-12-23T03:40:19.355Z,10.10
2022-12-23T03:42:52.126Z,10.10
2022-12-23T03:45:41.569Z,10.10
2022-12-23T03:48:16.369Z,10.10
2022-12-23T03:50:49.926Z,10.10
2022-12-23T03:53:23.289Z,10.10
2022-12-23T03:55:56.427Z,10.10
2022-12-23T03:58:33.721Z,10.10
2022-12-23T04:01:12.133Z,10.10
2022-12-23T04:03:50.210Z,10.10
2022-12-23T04:06:22.758Z,10.10
2022-12-23T04:08:52.301Z,10.10
2022-12-23T04:11:20.969Z,10.10
2022-12-23T04:13:49.940Z,10.10
2022-12-23T04:16:18.835Z,10.10
2022-12-23T04:18:47.175Z,10.10
2022-12-23T04:21:15.559Z,10.10
2022-12-23T04:23:45.562Z,10.10
2022-12-23T04:26:15.321Z,10.10
2022-12-23T04:28:43.757Z,10.10
2022-12-23T04:31:12.409Z,10.10
2022-12-23T04:33:41.103Z,10.10
2022-12-23T04:36:09.628Z,10.10
2022-12-23T04:38:38.001Z,10.10
2022-12-23T04:41:07.931Z,10.10
2022-12-23T04:43:39.246Z,10.10
2022-12-23T04:46:07.701Z,10.10
2022-12-23T04:48:37.373Z,10.10
2022-12-23T04:51:06.041Z,10.10
2022-12-23T04:53:36.858Z,10.10
2022-12-23T04:56:05.536Z,10.10
2022-12-23T04:58:35.562Z,10.10
2022-12-23T05:01:04.679Z,10.10
2022-12-23T05:03:33.578Z,10.10
2022-12-23T05:06:02.288Z,10.10
2022-12-23T05:08:31.278Z,10.10
2022-12-23T05:10:59.608Z,10.10
2022-12-23T05:13:28.535Z,10.10
2022-12-23T05:15:58.687Z,10.10
2022-12-23T05:18:27.396Z,10.10
2022-12-23T05:20:55.767Z,10.10
2022-12-23T05:23:24.153Z,10.10
2022-12-23T05:25:54.088Z,10.10
2022-12-23T05:28:23.058Z,10.10
2022-12-23T05:30:51.461Z,10.10
2022-12-23T05:33:21.687Z,10.10
2022-12-23T05:35:50.036Z,10.10
2022-12-23T05:38:18.496Z,10.10
2022-12-23T05:40:46.825Z,10.10
2022-12-23T05:43:16.083Z,10.10
2022-12-23T05:45:44.661Z,10.20
2022-12-23T05:48:14.480Z,10.20
2022-12-23T05:50:44.498Z,10.20
2022-12-23T05:53:13.428Z,10.10
2022-12-23T05:55:41.779Z,10.10
2022-12-23T05:58:10.407Z,10.10
2022-12-23T06:00:38.744Z,10.10
2022-12-23T06:03:07.251Z,10.10
2022-12-23T06:05:37.770Z,10.20
2022-12-23T06:08:07.840Z,10.10
2022-12-23T06:10:36.844Z,10.10
2022-12-23T06:13:05.288Z,10.10
2022-12-23T06:15:36.402Z,10.10
2022-12-23T06:18:05.127Z,10.10
2022-12-23T06:20:36.704Z,10.20
2022-12-23T06:23:06.586Z,10.10
2022-12-23T06:25:35.259Z,10.20
2022-12-23T06:28:03.710Z,10.10
2022-12-23T06:30:32.291Z,10.10
2022-12-23T06:33:00.832Z,10.10
2022-12-23T06:35:30.150Z,10.20
2022-12-23T06:37:58.789Z,10.20
2022-12-23T06:40:31.499Z,10.20
2022-12-23T06:42:59.980Z,10.20
2022-12-23T06:45:28.754Z,10.20
2022-12-23T06:47:57.556Z,10.20
2022-12-23T06:50:26.071Z,10.20
2022-12-23T06:52:54.451Z,10.20
2022-12-23T06:55:22.764Z,10.20
2022-12-23T06:57:52.674Z,10.10
2022-12-23T07:00:21.737Z,10.10
2022-12-23T07:02:50.265Z,10.10
2022-12-23T07:05:19.097Z,10.10
2022-12-23T07:07:47.450Z,10.10
2022-12-23T07:10:15.863Z,10.10
2022-12-23T07:12:50.401Z,10.10
2022-12-23T07:15:20.569Z,10.10
2022-12-23T07:17:49.049Z,10.10
2022-12-23T07:20:17.876Z,10.10
2022-12-23T07:22:46.296Z,10.10
2022-12-23T07:25:15.126Z,10.00
2022-12-23T07:27:43.653Z,10.00
2022-12-23T07:30:12.664Z,10.00
2022-12-23T07:32:42.621Z,10.00
2022-12-23T07:35:11.344Z,10.00
2022-12-23T07:37:39.889Z,10.00
2022-12-23T07:40:10.233Z,10.00
2022-12-23T07:42:45.591Z,10.00
2022-12-23T07:45:14.841Z,10.00
2022-12-23T07:47:44.940Z,10.00
2022-12-23T07:50:15.006Z,10.00
2022-12-23T07:52:43.487Z,10.00
2022-12-23T07:55:12.145Z,9.90
2022-12-23T07:57:41.112Z,9.90
2022-12-23T08:00:14.257Z,9.90
2022-12-23T08:02:45.277Z,9.90
2022-12-23T08:05:14.788Z,9.90
2022-12-23T08:07:45.101Z,9.90
2022-12-23T08:10:14.271Z,9.90
2022-12-23T08:12:43.231Z,9.90
2022-12-23T08:15:12.052Z,9.90
2022-12-23T08:17:40.640Z,9.90
2022-12-23T08:20:14.155Z,9.90
2022-12-23T08:22:42.766Z,9.90
2022-12-23T08:25:11.473Z,9.90
2022-12-23T08:27:40.316Z,9.90
2022-12-23T08:30:10.015Z,9.90
2022-12-23T08:32:38.497Z,9.90
2022-12-23T08:35:08.005Z,9.90
2022-12-23T08:37:38.614Z,9.90
2022-12-23T08:40:11.204Z,9.90
2022-12-23T08:42:39.845Z,9.90
2022-12-23T08:45:09.615Z,9.90
2022-12-23T08:47:38.149Z,9.90
2022-12-23T08:50:07.694Z,9.90
2022-12-23T08:52:37.518Z,9.90
2022-12-23T08:55:06.283Z,9.90
2022-12-23T08:57:36.169Z,9.90
2022-12-23T09:00:05.898Z,9.90
2022-12-23T09:02:34.568Z,9.90
2022-12-23T09:05:03.363Z,9.90
2022-12-23T09:07:32.614Z,9.80
2022-12-23T09:10:05.432Z,9.80
2022-12-23T09:12:34.388Z,9.80
2022-12-23T09:15:03.316Z,9.90
2022-12-23T09:17:32.301Z,9.80
2022-12-23T09:20:01.067Z,9.80
2022-12-23T09:22:30.077Z,9.90
2022-12-23T09:25:04.766Z,9.80
2022-12-23T09:27:35.381Z,9.80
2022-12-23T09:30:07.915Z,9.80
2022-12-23T09:32:39.123Z,9.80
2022-12-23T09:35:08.747Z,9.70
2022-12-23T09:37:37.900Z,9.80
2022-12-23T09:40:07.363Z,9.80
2022-12-23T09:42:55.712Z,9.80
2022-12-23T09:45:48.779Z,9.80
2022-12-23T09:48:21.233Z,9.80
2022-12-23T09:50:50.512Z,9.80
2022-12-23T09:53:21.885Z,9.90
2022-12-23T09:55:56.513Z,9.90
2022-12-23T09:58:32.206Z,9.90
2022-12-23T10:01:20.408Z,9.90
2022-12-23T10:04:30.704Z,10.00
2022-12-23T10:07:26.754Z,10.00
2022-12-23T10:09:57.911Z,10.00
2022-12-23T10:12:40.253Z,10.00
2022-12-23T10:15:22.067Z,10.00
2022-12-23T10:18:06.379Z,10.00
2022-12-23T10:20:47.164Z,10.00
2022-12-23T10:23:21.073Z,10.10
2022-12-23T10:25:52.832Z,10.10
2022-12-23T10:28:21.896Z,10.10
2022-12-23T10:31:39.228Z,10.10
2022-12-23T10:34:00.647Z,10.10
2022-12-23T10:36:42.106Z,10.20
2022-12-23T10:39:20.068Z,10.20
2022-12-23T10:42:00.261Z,10.20
2022-12-23T10:45:12.131Z,10.20
2022-12-23T10:47:59.997Z,10.20
2022-12-23T10:50:54.016Z,10.20
2022-12-23T10:53:35.710Z,10.20
2022-12-23T10:56:07.988Z,10.20
2022-12-23T10:58:45.771Z,10.20
2022-12-23T11:01:27.538Z,10.20
2022-12-23T11:04:07.951Z,10.20
2022-12-23T11:06:43.428Z,10.20
2022-12-23T11:09:18.916Z,10.30
2022-12-23T11:12:00.578Z,10.20
2022-12-23T11:14:35.148Z,10.20
2022-12-23T11:17:09.971Z,10.20
2022-12-23T11:19:40.872Z,10.10
2022-12-23T11:22:26.733Z,10.10
2022-12-23T11:24:55.489Z,10.10
2022-12-23T11:27:24.925Z,10.10
2022-12-23T11:29:56.523Z,10.10
2022-12-23T11:32:29.168Z,10.10
2022-12-23T11:34:59.944Z,10.10
2022-12-23T11:37:42.687Z,10.10
2022-12-23T11:40:34.783Z,10.20
2022-12-23T11:43:06.535Z,10.20
2022-12-23T11:45:39.035Z,10.20
2022-12-23T11:48:30.673Z,10.20
2022-12-23T11:51:05.365Z,10.10
2022-12-23T11:53:35.427Z,10.10
2022-12-23T11:56:09.865Z,10.10
2022-12-23T11:58:48.316Z,10.10
2022-12-23T12:01:20.568Z,10.00
2022-12-23T12:03:52.823Z,10.00
2022-12-23T12:06:24.425Z,10.00
2022-12-23T12:08:54.248Z,10.00
2022-12-23T12:11:28.159Z,10.00
2022-12-23T12:14:01.260Z,10.00
2022-12-23T12:16:50.310Z,10.00
2022-12-23T12:19:24.600Z,10.00
2022-12-23T12:22:00.817Z,10.00
2022-12-23T12:24:33.252Z,10.00
2022-12-23T12:27:06.519Z,10.00
2022-12-23T12:29:45.089Z,10.00
2022-12-23T12:32:20.840Z,10.00
2022-12-23T12:34:58.655Z,9.90
2022-12-23T12:37:37.675Z,9.90
2022-12-23T12:40:19.199Z,9.90
2022-12-23T12:42:54.827Z,9.90
2022-12-23T12:45:28.917Z,9.80
2022-12-23T12:48:18.899Z,9.80
2022-12-23T12:50:57.036Z,9.80
2022-12-23T12:53:33.687Z,9.80
2022-12-23T12:56:10.051Z,9.80
2022-12-23T12:58:40.378Z,9.80
2022-12-23T13:01:27.830Z,9.70
2022-12-23T13:04:37.892Z,9.70
2022-12-23T13:07:17.787Z,9.70
2022-12-23T13:10:02.091Z,9.70
2022-12-23T13:12:46.938Z,9.70
2022-12-23T13:15:23.950Z,9.70
2022-12-23T13:18:22.033Z,9.70
2022-12-23T13:21:10.510Z,9.70
2022-12-23T13:23:47.226Z,9.70
2022-12-23T13:26:26.875Z,9.60
2022-12-23T13:29:09.904Z,9.70
2022-12-23T13:31:49.169Z,9.60
2022-12-23T13:34:34.898Z,9.70
2022-12-23T13:37:17.333Z,9.70
2022-12-23T13:39:58.560Z,9.70
2022-12-23T13:42:37.397Z,9.70
2022-12-23T13:45:08.662Z,9.80
2022-12-23T13:47:50.657Z,9.80
2022-12-23T13:50:25.109Z,9.80
2022-12-23T13:53:28.917Z,9.80
2022-12-23T13:56:10.320Z,9.80
2022-12-23T13:58:48.071Z,9.80
2022-12-23T14:01:52.867Z,9.80
2022-12-23T14:04:58.865Z,9.80
2022-12-23T14:07:30.723Z,9.80
2022-12-23T14:10:14.002Z,9.80
2022-12-23T14:12:45.226Z,9.90
2022-12-23T14:15:50.031Z,9.90
2022-12-23T14:18:44.611Z,9.80
2022-12-23T14:21:22.753Z,9.90
2022-12-23T14:24:38.369Z,9.80
2022-12-23T14:27:36.873Z,9.80
2022-12-23T14:30:20.862Z,9.80
2022-12-23T14:32:53.374Z,9.80
2022-12-23T14:35:51.939Z,9.80
2022-12-23T14:39:07.722Z,9.80
2022-12-23T14:41:45.172Z,9.70
2022-12-23T14:44:44.392Z,9.70
2022-12-23T14:47:33.050Z,9.70
2022-12-23T14:54:14.933Z,9.70
2022-12-23T14:57:14.619Z,9.60
2022-12-23T14:59:53.794Z,9.60
2022-12-23T15:02:32.850Z,9.60
2022-12-23T15:05:09.430Z,9.60
2022-12-23T15:07:58.613Z,9.60
2022-12-23T15:10:31.255Z,9.60
2022-12-23T15:13:09.168Z,9.60
2022-12-23T15:15:38.700Z,9.60
2022-12-23T15:18:12.916Z,9.60
2022-12-23T15:20:42.013Z,9.60
2022-12-23T15:23:12.391Z,9.60
2022-12-23T15:25:47.441Z,9.60
2022-12-23T15:28:20.968Z,9.50
2022-12-23T15:30:56.812Z,9.50
2022-12-23T15:36:26.717Z,9.40
2022-12-23T15:38:55.649Z,9.40
2022-12-23T15:41:28.769Z,9.40
2022-12-23T15:44:04.208Z,9.40
2022-12-23T15:46:33.687Z,9.40
2022-12-23T15:49:03.551Z,9.40
2022-12-23T15:52:05.798Z,9.40
2022-12-23T15:54:31.106Z,9.40
2022-12-23T15:57:04.032Z,9.30
2022-12-23T15:59:43.909Z,9.30
2022-12-23T16:05:14.899Z,9.40
2022-12-23T16:07:46.333Z,9.50
2022-12-23T16:10:24.084Z,9.40
2022-12-23T16:13:02.186Z,9.40
2022-12-23T16:15:34.640Z,9.50
2022-12-23T16:18:22.203Z,9.50
2022-12-23T16:20:54.095Z,9.50
2022-12-23T16:23:23.440Z,9.40
2022-12-23T16:25:55.393Z,9.40
2022-12-23T16:28:50.636Z,9.40
2022-12-23T16:31:24.469Z,9.50
2022-12-23T16:33:58.535Z,9.50
2022-12-23T16:36:39.005Z,9.50
2022-12-23T16:39:22.068Z,9.50
2022-12-23T16:41:51.731Z,9.60
2022-12-23T16:44:28.812Z,9.60
2022-12-23T16:46:57.753Z,9.60
2022-12-23T16:49:35.785Z,9.70
2022-12-23T16:52:11.294Z,9.70
2022-12-23T16:54:44.611Z,9.70
2022-12-23T16:57:13.905Z,9.80
2022-12-23T16:59:44.183Z,9.80
2022-12-23T17:02:20.948Z,9.90
2022-12-23T17:04:52.420Z,10.00
2022-12-23T17:07:23.805Z,10.00
2022-12-23T17:09:52.774Z,10.00
2022-12-23T17:12:22.524Z,10.00
2022-12-23T17:14:52.691Z,10.10
2022-12-23T17:17:29.815Z,10.10
2022-12-23T17:19:59.303Z,10.20
2022-12-23T17:22:35.792Z,10.20
2022-12-23T17:25:05.617Z,10.30
2022-12-23T17:27:41.767Z,10.30
2022-12-23T17:30:24.469Z,10.40
2022-12-23T17:32:59.478Z,10.40
2022-12-23T17:35:39.928Z,10.50
2022-12-23T17:38:16.149Z,10.50
2022-12-23T17:40:47.875Z,10.60
2022-12-23T17:43:19.419Z,10.60
2022-12-23T17:45:49.560Z,10.60
2022-12-23T17:48:22.293Z,10.70
2022-12-23T17:50:54.252Z,10.70
2022-12-23T17:53:23.322Z,10.80
2022-12-23T17:55:52.090Z,10.80
2022-12-23T17:58:21.779Z,10.80
2022-12-23T18:00:53.908Z,10.90
2022-12-23T18:03:28.198Z,10.90
2022-12-23T18:06:01.509Z,10.90
2022-12-23T18:08:34.039Z,10.90
2022-12-23T18:11:05.948Z,10.90
2022-12-23T18:13:35.026Z,10.90
2022-12-23T18:16:07.113Z,10.90
2022-12-23T18:18:46.162Z,10.90
2022-12-23T18:21:25.897Z,10.90
2022-12-23T18:24:05.035Z,10.90
2022-12-23T18:26:34.097Z,11.00
2022-12-23T18:29:06.376Z,11.00
2022-12-23T18:31:50.553Z,11.00
2022-12-23T18:34:19.929Z,10.90
2022-12-23T18:36:56.591Z,10.90
2022-12-23T18:39:25.675Z,11.00
2022-12-23T18:41:57.005Z,11.00
2022-12-23T18:44:26.437Z,11.00
2022-12-23T18:46:59.878Z,11.00
2022-12-23T18:49:29.481Z,11.00
2022-12-23T18:52:01.141Z,11.00
2022-12-23T18:54:30.512Z,11.10
2022-12-23T18:57:04.815Z,11.10
2022-12-23T18:59:36.621Z,11.10
2022-12-23T19:02:08.477Z,11.10
2022-12-23T19:04:37.685Z,11.10
2022-12-23T19:07:07.390Z,11.10
2022-12-23T19:09:37.278Z,11.10
2022-12-23T19:12:07.020Z,11.10
2022-12-23T19:14:38.221Z,11.10
2022-12-23T19:17:12.784Z,11.10
2022-12-23T19:19:42.803Z,11.10
2022-12-23T19:22:11.509Z,11.00
2022-12-23T19:24:58.230Z,11.00
2022-12-23T19:27:45.299Z,11.00
2022-12-23T19:30:16.920Z,11.00
2022-12-23T19:32:47.603Z,11.00
2022-12-23T19:35:18.737Z,11.00
2022-12-23T19:37:50.931Z,11.00
2022-12-23T19:40:22.863Z,11.00
2022-12-23T19:42:54.030Z,11.00
2022-12-23T19:45:23.211Z,11.00
2022-12-23T19:47:55.250Z,11.00
2022-12-23T19:50:27.593Z,11.00
2022-12-23T19:52:56.723Z,10.90
2022-12-23T19:55:29.775Z,10.90
2022-12-23T19:57:58.922Z,10.90
2022-12-23T20:00:28.502Z,10.90
2022-12-23T20:02:59.861Z,10.90
2022-12-23T20:05:28.689Z,10.90
2022-12-23T20:08:13.155Z,10.90
2022-12-23T20:10:45.520Z,10.90
2022-12-23T20:13:16.475Z,10.90
2022-12-23T20:15:48.052Z,10.90
2022-12-23T20:18:18.137Z,10.90
2022-12-23T20:20:48.108Z,10.90
2022-12-23T20:23:17.444Z,10.90
2022-12-23T20:25:48.209Z,10.90
2022-12-23T20:28:20.348Z,10.90
2022-12-23T20:31:03.678Z,10.90
2022-12-23T20:33:36.649Z,10.90
2022-12-23T20:36:08.586Z,10.90
2022-12-23T20:38:43.026Z,10.80
2022-12-23T20:41:15.369Z,10.80
2022-12-23T20:43:52.517Z,10.80
2022-12-23T20:46:38.425Z,10.90
2022-12-23T20:49:15.195Z,10.90
2022-12-23T20:51:49.031Z,10.90
2022-12-23T20:54:27.875Z,10.90
2022-12-23T20:57:01.120Z,10.90
2022-12-23T20:59:31.098Z,10.90
2022-12-23T21:02:00.359Z,10.90
2022-12-23T21:04:33.339Z,10.90
2022-12-23T21:07:03.162Z,10.90
2022-12-23T21:09:32.236Z,10.80
2022-12-23T21:12:04.486Z,10.80
2022-12-23T21:14:34.153Z,10.80
2022-12-23T21:17:03.339Z,10.80
2022-12-23T21:19:39.125Z,10.80
2022-12-23T21:22:08.570Z,10.80
2022-12-23T21:24:37.909Z,10.80
2022-12-23T21:27:08.840Z,10.70
2022-12-23T21:29:43.545Z,10.70
2022-12-23T21:32:13.825Z,10.70
2022-12-23T21:34:53.936Z,10.70
2022-12-23T21:37:22.915Z,10.70
2022-12-23T21:39:52.009Z,10.70
2022-12-23T21:42:21.903Z,10.70
2022-12-23T21:44:53.439Z,10.70
2022-12-23T21:47:25.705Z,10.70
2022-12-23T21:49:58.364Z,10.70
2022-12-23T21:52:28.953Z,10.70
2022-12-23T21:55:03.446Z,10.60
2022-12-23T21:57:32.509Z,10.60
2022-12-23T22:00:06.574Z,10.60
2022-12-23T22:02:41.271Z,10.60
2022-12-23T22:05:12.366Z,10.60
2022-12-23T22:07:44.999Z,10.50
2022-12-23T22:10:13.780Z,10.50
2022-12-23T22:12:42.602Z,10.50
2022-12-23T22:15:13.140Z,10.50
2022-12-23T22:17:45.609Z,10.50
2022-12-23T22:20:19.065Z,10.50
2022-12-23T22:22:55.754Z,10.50
2022-12-23T22:25:27.691Z,10.50
2022-12-23T22:27:56.812Z,10.50
2022-12-23T22:30:28.122Z,10.50
2022-12-23T22:32:59.843Z,10.50
2022-12-23T22:35:35.986Z,10.50
2022-12-23T22:38:05.931Z,10.50
2022-12-23T22:40:37.194Z,10.50
2022-12-23T22:43:09.170Z,10.50
2022-12-23T22:45:52.283Z,10.50
2022-12-23T22:48:29.317Z,10.50
2022-12-23T22:51:11.450Z,10.40
2022-12-23T22:53:46.267Z,10.40
2022-12-23T22:56:26.386Z,10.40
2022-12-23T22:58:57.571Z,10.40
2022-12-23T23:01:29.575Z,10.40
2022-12-23T23:04:01.759Z,10.40
2022-12-23T23:06:33.463Z,10.40
2022-12-23T23:09:03.784Z,10.40
2022-12-23T23:11:45.722Z,10.40
2022-12-23T23:14:15.305Z,10.40
2022-12-23T23:16:59.773Z,10.30
2022-12-23T23:19:28.713Z,10.30
2022-12-23T23:22:00.733Z,10.30
2022-12-23T23:24:31.531Z,10.30
2022-12-23T23:27:08.041Z,10.30
2022-12-23T23:29:43.873Z,10.20
2022-12-23T23:32:14.635Z,10.20
2022-12-23T23:34:47.507Z,10.20
2022-12-23T23:37:27.377Z,10.20
2022-12-23T23:39:56.505Z,10.20
2022-12-23T23:42:27.965Z,10.20
2022-12-23T23:45:05.119Z,10.20
2022-12-23T23:47:35.344Z,10.20
2022-12-23T23:50:16.970Z,10.20
2022-12-23T23:52:51.369Z,10.20
2022-12-23T23:55:20.048Z,10.20
2022-12-23T23:57:50.190Z,10.20
